createdAt,value
2023-10-10T00:00:25.184Z,10.90
2023-10-10T00:04:34.113Z,11.20
2023-10-10T00:08:43.680Z,9.17
2023-10-10T00:12:49.258Z,8.63
2023-10-10T00:17:00.892Z,12.67
2023-10-10T00:21:07.665Z,9.40
2023-10-10T00:25:14.161Z,10.07
2023-10-10T00:29:23.092Z,9.30
2023-10-10T00:33:28.646Z,16.83
2023-10-10T00:37:36.135Z,18.57
2023-10-10T00:41:50.684Z,14.27
2023-10-10T00:45:58.841Z,27.33
2023-10-10T00:50:04.749Z,20.80
2023-10-10T00:54:14.952Z,14.73
2023-10-10T00:58:23.566Z,15.00
2023-10-10T01:02:30.780Z,13.90
2023-10-10T01:06:36.566Z,10.33
2023-10-10T01:10:49.057Z,10.83
2023-10-10T01:14:58.795Z,13.53
2023-10-10T01:19:04.821Z,10.53
2023-10-10T01:23:10.324Z,12.60
2023-10-10T01:27:22.216Z,10.70
2023-10-10T01:31:31.947Z,12.77
2023-10-10T01:35:42.699Z,11.10
2023-10-10T01:40:09.628Z,10.60
2023-10-10T01:44:24.050Z,10.60
2023-10-10T01:48:31.264Z,9.27
2023-10-10T01:52:47.501Z,9.37
2023-10-10T01:56:53.374Z,9.17
2023-10-10T02:00:59.568Z,7.07
2023-10-10T02:05:05.864Z,7.17
2023-10-10T02:09:20.574Z,8.63
2023-10-10T02:13:26.720Z,9.80
2023-10-10T02:17:40.508Z,9.00
2023-10-10T02:21:49.437Z,13.27
2023-10-10T02:25:54.982Z,8.23
2023-10-10T02:30:05.576Z,11.93
2023-10-10T02:34:11.892Z,10.47
2023-10-10T02:38:18.202Z,14.00
2023-10-10T02:42:24.778Z,12.57
2023-10-10T02:46:38.413Z,10.90
2023-10-10T02:50:45.214Z,16.17
2023-10-10T02:54:56.766Z,22.70
2023-10-10T02:59:06.299Z,15.60
2023-10-10T03:03:19.317Z,20.70
2023-10-10T03:07:30.894Z,21.63
2023-10-10T03:11:54.252Z,22.37
2023-10-10T03:16:20.059Z,16.37
2023-10-10T03:20:31.590Z,18.83
2023-10-10T03:24:59.960Z,23.53
2023-10-10T03:29:06.116Z,25.43
2023-10-10T03:33:17.759Z,23.83
2023-10-10T03:37:27.938Z,21.00
2023-10-10T03:41:33.450Z,21.73
2023-10-10T03:46:01.305Z,20.23
2023-10-10T03:50:25.851Z,19.13
2023-10-10T03:54:50.083Z,24.47
2023-10-10T03:59:14.353Z,19.43
2023-10-10T04:03:38.783Z,26.43
2023-10-10T04:08:02.933Z,31.07
2023-10-10T04:12:26.726Z,30.03
2023-10-10T04:16:50.810Z,41.60
2023-10-10T04:21:14.630Z,34.13
2023-10-10T04:25:38.601Z,30.90
2023-10-10T04:30:02.763Z,27.37
2023-10-10T04:34:26.743Z,25.67
2023-10-10T04:38:50.394Z,29.50
2023-10-10T04:43:14.478Z,28.43
2023-10-10T04:47:38.720Z,24.30
2023-10-10T04:52:02.844Z,22.43
2023-10-10T04:56:26.900Z,22.53
2023-10-10T05:00:51.147Z,24.63
2023-10-10T05:05:15.120Z,20.67
2023-10-10T05:09:38.905Z,20.77
2023-10-10T05:14:03.062Z,26.93
2023-10-10T05:18:27.277Z,18.10
2023-10-10T05:22:51.504Z,22.60
2023-10-10T05:26:57.804Z,19.93
2023-10-10T05:31:04.369Z,19.77
2023-10-10T05:35:12.798Z,23.63
2023-10-10T05:39:24.344Z,25.10
2023-10-10T05:43:35.193Z,21.70
2023-10-10T05:47:41.762Z,19.53
2023-10-10T05:51:47.612Z,19.43
2023-10-10T05:55:59.625Z,22.53
2023-10-10T06:00:12.283Z,23.87
2023-10-10T06:04:18.554Z,22.07
2023-10-10T06:08:26.350Z,23.77
2023-10-10T06:12:37.466Z,21.80
2023-10-10T06:16:43.050Z,24.27
2023-10-10T06:25:00.230Z,24.90
2023-10-10T06:29:05.801Z,26.07
2023-10-10T06:33:15.438Z,23.17
2023-10-10T06:37:27.891Z,20.17
2023-10-10T06:41:43.727Z,21.37
2023-10-10T06:45:58.398Z,18.00
2023-10-10T06:50:11.884Z,20.07
2023-10-10T06:54:30.068Z,19.10
2023-10-10T06:58:35.666Z,24.03
2023-10-10T07:02:42.178Z,22.27
2023-10-10T07:06:48.983Z,21.83
2023-10-10T07:10:57.374Z,22.17
2023-10-10T07:15:07.832Z,17.80
2023-10-10T07:19:31.848Z,17.60
2023-10-10T07:23:40.716Z,19.50
2023-10-10T07:27:46.746Z,17.90
2023-10-10T07:31:54.317Z,17.77
2023-10-10T07:36:01.567Z,17.80
2023-10-10T07:40:19.543Z,18.13
2023-10-10T07:44:26.085Z,19.53
2023-10-10T07:48:37.804Z,19.60
2023-10-10T07:52:43.346Z,14.50
2023-10-10T07:56:48.885Z,18.57
2023-10-10T08:01:04.474Z,15.87
2023-10-10T08:05:14.336Z,17.03
2023-10-10T08:09:20.097Z,17.17
2023-10-10T08:13:29.837Z,14.90
2023-10-10T08:17:36.445Z,13.83
2023-10-10T08:21:51.458Z,17.93
2023-10-10T08:25:58.200Z,17.60
2023-10-10T08:30:04.190Z,16.20
2023-10-10T08:34:10.872Z,16.80
2023-10-10T08:38:20.696Z,17.30
2023-10-10T08:42:27.676Z,14.37
2023-10-10T08:46:41.910Z,16.70
2023-10-10T08:50:48.910Z,19.23
2023-10-10T08:54:54.836Z,16.00
2023-10-10T08:59:02.277Z,14.60
2023-10-10T09:03:09.146Z,15.87
2023-10-10T09:07:21.701Z,13.20
2023-10-10T09:11:33.998Z,16.30
2023-10-10T09:15:57.080Z,15.37
2023-10-10T09:20:23.816Z,17.77
2023-10-10T09:24:38.675Z,17.33
2023-10-10T09:28:45.972Z,21.87
2023-10-10T09:32:58.814Z,16.97
2023-10-10T09:37:08.320Z,16.23
2023-10-10T09:41:37.492Z,16.33
2023-10-10T09:45:56.887Z,18.50
2023-10-10T09:50:24.195Z,16.17
2023-10-10T09:54:36.277Z,17.57
2023-10-10T09:58:45.781Z,16.80
2023-10-10T10:02:58.218Z,20.70
2023-10-10T10:07:18.572Z,25.07
2023-10-10T10:11:37.160Z,23.03
2023-10-10T10:16:00.254Z,24.20
2023-10-10T10:20:21.071Z,25.07
2023-10-10T10:24:32.084Z,28.30
2023-10-10T10:28:57.643Z,25.80
2023-10-10T10:33:03.503Z,30.30
2023-10-10T10:37:21.390Z,30.60
2023-10-10T10:41:43.781Z,30.50
2023-10-10T10:46:06.975Z,31.30
2023-10-10T10:50:31.434Z,37.13
2023-10-10T10:54:36.998Z,22.40
2023-10-10T10:59:05.386Z,19.27
2023-10-10T11:03:12.770Z,20.70
2023-10-10T11:07:30.045Z,23.53
2023-10-10T11:11:35.665Z,19.00
2023-10-10T11:15:41.120Z,17.50
2023-10-10T11:19:48.668Z,14.60
2023-10-10T11:23:58.722Z,18.60
2023-10-10T11:28:04.695Z,16.30
2023-10-10T11:32:13.618Z,17.20
2023-10-10T11:36:39.314Z,14.17
2023-10-10T11:40:45.447Z,19.80
2023-10-10T11:45:07.757Z,10.83
2023-10-10T11:49:17.966Z,13.63
2023-10-10T11:53:30.878Z,10.10
2023-10-10T11:57:36.415Z,11.03
2023-10-10T12:01:51.244Z,10.17
2023-10-10T12:05:59.320Z,15.80
2023-10-10T12:10:09.248Z,9.43
2023-10-10T12:14:20.384Z,9.33
2023-10-10T12:18:33.032Z,9.30
2023-10-10T12:22:39.451Z,10.70
2023-10-10T12:26:45.032Z,12.33
2023-10-10T12:30:50.581Z,6.93
2023-10-10T12:34:56.019Z,11.83
2023-10-10T12:39:05.911Z,8.07
2023-10-10T12:43:14.698Z,8.50
2023-10-10T12:47:20.898Z,7.90
2023-10-10T12:51:26.876Z,5.77
2023-10-10T12:55:34.043Z,8.10
2023-10-10T12:59:40.150Z,5.17
2023-10-10T13:03:50.324Z,9.73
2023-10-10T13:07:59.725Z,5.17
2023-10-10T13:12:05.664Z,7.17
2023-10-10T13:16:33.979Z,4.87
2023-10-10T13:20:40.563Z,8.90
2023-10-10T13:24:46.121Z,12.87
2023-10-10T13:28:51.629Z,9.07
2023-10-10T13:32:57.499Z,5.23
2023-10-10T13:37:09.904Z,9.30
2023-10-10T13:41:19.844Z,5.63
2023-10-10T13:45:28.464Z,9.07
2023-10-10T13:49:35.248Z,5.40
2023-10-10T13:53:46.175Z,5.87
2023-10-10T13:57:51.826Z,8.50
2023-10-10T14:02:03.883Z,5.83
2023-10-10T14:06:11.543Z,7.90
2023-10-10T14:10:22.218Z,4.57
2023-10-10T14:14:28.626Z,4.70
2023-10-10T14:18:44.078Z,4.60
2023-10-10T14:22:56.189Z,6.13
2023-10-10T14:27:02.071Z,7.33
2023-10-10T14:31:12.904Z,5.83
2023-10-10T14:35:19.593Z,4.13
2023-10-10T14:39:37.226Z,6.07
2023-10-10T14:43:47.896Z,7.00
2023-10-10T14:47:53.457Z,4.20
2023-10-10T14:52:08.230Z,4.40
2023-10-10T14:56:20.618Z,4.13
2023-10-10T15:00:29.601Z,3.50
2023-10-10T15:04:36.769Z,4.03
2023-10-10T15:08:44.568Z,7.10
2023-10-10T15:12:51.095Z,2.97
2023-10-10T15:16:59.853Z,3.43
2023-10-10T15:21:05.815Z,4.13
2023-10-10T15:25:14.129Z,3.93
2023-10-10T15:29:22.923Z,3.53
2023-10-10T15:33:31.882Z,6.37
2023-10-10T15:37:44.848Z,5.13
2023-10-10T15:41:51.100Z,9.30
2023-10-10T15:45:57.878Z,5.80
2023-10-10T15:50:03.763Z,3.47
2023-10-10T15:54:10.387Z,4.83
2023-10-10T15:58:15.852Z,7.37
2023-10-10T16:02:22.450Z,4.03
2023-10-10T16:06:31.098Z,8.63
2023-10-10T16:10:39.551Z,4.90
2023-10-10T16:14:48.951Z,6.30
2023-10-10T16:18:55.777Z,9.77
2023-10-10T16:23:01.371Z,11.07
2023-10-10T16:27:07.177Z,11.00
2023-10-10T16:31:18.439Z,9.37
2023-10-10T16:35:24.206Z,12.70
2023-10-10T16:39:29.798Z,13.07
2023-10-10T16:43:54.019Z,13.67
2023-10-10T16:48:04.530Z,11.03
2023-10-10T16:52:10.136Z,10.70
2023-10-10T16:56:16.181Z,14.50
2023-10-10T17:00:22.805Z,14.07
2023-10-10T17:04:28.459Z,15.60
2023-10-10T17:08:34.847Z,13.20
2023-10-10T17:12:43.777Z,19.83
2023-10-10T17:16:49.344Z,15.23
2023-10-10T17:21:01.501Z,19.43
2023-10-10T17:25:09.731Z,17.17
2023-10-10T17:29:16.191Z,16.67
2023-10-10T17:33:22.190Z,20.97
2023-10-10T17:37:27.688Z,18.10
2023-10-10T17:41:36.160Z,14.97
2023-10-10T17:45:41.941Z,22.87
2023-10-10T17:49:48.862Z,17.83
2023-10-10T17:53:55.716Z,25.17
2023-10-10T17:58:04.633Z,23.23
2023-10-10T18:02:10.496Z,23.27
2023-10-10T18:06:22.171Z,23.13
2023-10-10T18:10:28.774Z,27.70
2023-10-10T18:14:34.370Z,27.47
2023-10-10T18:18:43.169Z,28.10
2023-10-10T18:22:52.607Z,26.10
2023-10-10T18:26:58.827Z,29.73
2023-10-10T18:31:04.806Z,28.80
2023-10-10T18:35:15.418Z,34.23
2023-10-10T18:39:21.060Z,32.80
2023-10-10T18:43:27.082Z,25.67
2023-10-10T18:47:32.815Z,23.83
2023-10-10T18:51:38.381Z,34.80
2023-10-10T18:55:48.732Z,29.07
2023-10-10T18:59:54.301Z,31.30
2023-10-10T19:04:02.139Z,32.87
2023-10-10T19:08:09.822Z,35.90
2023-10-10T19:12:17.427Z,32.30
2023-10-10T19:16:22.965Z,34.70
2023-10-10T19:20:34.106Z,35.37
2023-10-10T19:24:41.101Z,36.70
2023-10-10T19:28:54.526Z,34.67
2023-10-10T19:33:02.266Z,39.37
2023-10-10T19:37:10.251Z,34.50
2023-10-10T19:41:16.164Z,35.43
2023-10-10T19:45:26.025Z,37.43
2023-10-10T19:49:35.670Z,38.87
2023-10-10T19:53:41.306Z,33.50
2023-10-10T19:57:46.910Z,38.70
2023-10-10T20:01:52.722Z,33.30
2023-10-10T20:05:58.292Z,40.03
2023-10-10T20:10:05.258Z,33.57
2023-10-10T20:14:10.774Z,33.70
2023-10-10T20:18:16.846Z,36.60
2023-10-10T20:22:22.431Z,35.33
2023-10-10T20:26:27.975Z,38.47
2023-10-10T20:30:36.313Z,45.50
2023-10-10T20:34:42.462Z,39.83
2023-10-10T20:38:48.209Z,37.47
2023-10-10T20:42:55.972Z,30.50
2023-10-10T20:47:05.212Z,38.90
2023-10-10T20:51:14.711Z,35.87
2023-10-10T20:55:20.335Z,43.90
2023-10-10T20:59:26.252Z,32.30
2023-10-10T21:03:31.934Z,35.63
2023-10-10T21:07:39.359Z,33.53
2023-10-10T21:11:44.896Z,36.70
2023-10-10T21:15:50.597Z,35.53
2023-10-10T21:19:56.433Z,31.73
2023-10-10T21:24:01.927Z,30.60
2023-10-10T21:28:08.605Z,35.17
2023-10-10T21:32:14.102Z,30.77
2023-10-10T21:36:19.629Z,25.77
2023-10-10T21:40:26.123Z,26.40
2023-10-10T21:44:32.032Z,27.17
2023-10-10T21:48:37.875Z,26.20
2023-10-10T21:52:45.191Z,27.60
2023-10-10T21:56:50.836Z,27.20
2023-10-10T22:00:56.600Z,27.80
2023-10-10T22:05:03.089Z,23.40
2023-10-10T22:09:08.665Z,22.07
2023-10-10T22:13:16.114Z,22.07
2023-10-10T22:17:29.644Z,23.90
2023-10-10T22:21:35.588Z,23.47
2023-10-10T22:25:44.321Z,17.17
2023-10-10T22:29:49.839Z,21.20
2023-10-10T22:33:55.322Z,18.30
2023-10-10T22:38:01.424Z,25.80
2023-10-10T22:42:06.984Z,27.20
2023-10-10T22:46:12.787Z,31.67
2023-10-10T22:50:20.455Z,20.87
2023-10-10T22:54:26.037Z,15.20
2023-10-10T22:58:32.904Z,20.47
2023-10-10T23:02:39.097Z,20.83
2023-10-10T23:06:45.454Z,21.00
2023-10-10T23:10:50.944Z,14.10
2023-10-10T23:14:57.522Z,17.70
2023-10-10T23:19:03.120Z,19.27
2023-10-10T23:23:09.423Z,18.33
2023-10-10T23:27:15.462Z,14.03
2023-10-10T23:31:21.116Z,15.10
2023-10-10T23:35:27.942Z,15.33
2023-10-10T23:39:35.743Z,12.37
2023-10-10T23:43:44.520Z,18.20
2023-10-10T23:47:56.390Z,18.33
2023-10-10T23:52:02.085Z,11.40
2023-10-10T23:56:09.163Z,12.87
